sensor_id;sensor_type;location;lat;lon;timestamp;P1;durP1;ratioP1;P2;durP2;ratioP2
2854;SDS011;1435;49.472;10.940;2023-05-21T00:02:00;13.17;;;11.77;;
2854;SDS011;1435;49.472;10.940;2023-05-21T00:07:04;12.83;;;11.73;;
2854;SDS011;1435;49.472;10.940;2023-05-21T00:12:07;13.23;;;11.80;;
2854;SDS011;1435;49.472;10.940;2023-05-21T00:17:09;12.80;;;11.50;;
2854;SDS011;1435;49.472;10.940;2023-05-21T00:22:12;12.80;;;11.03;;
2854;SDS011;1435;49.472;10.940;2023-05-21T00:27:14;13.60;;;12.40;;
2854;SDS011;1435;49.472;10.940;2023-05-21T00:32:16;13.47;;;10.97;;
2854;SDS011;1435;49.472;10.940;2023-05-21T00:37:19;12.60;;;11.30;;
2854;SDS011;1435;49.472;10.940;2023-05-21T00:42:23;18.03;;;12.67;;
2854;SDS011;1435;49.472;10.940;2023-05-21T00:47:26;13.77;;;12.43;;
2854;SDS011;1435;49.472;10.940;2023-05-21T00:52:29;15.20;;;11.70;;
2854;SDS011;1435;49.472;10.940;2023-05-21T00:57:31;12.10;;;10.93;;
2854;SDS011;1435;49.472;10.940;2023-05-21T01:02:36;11.23;;;10.20;;
2854;SDS011;1435;49.472;10.940;2023-05-21T01:07:39;11.60;;;10.47;;
2854;SDS011;1435;49.472;10.940;2023-05-21T01:12:42;12.13;;;10.90;;
2854;SDS011;1435;49.472;10.940;2023-05-21T01:17:45;12.00;;;10.47;;
2854;SDS011;1435;49.472;10.940;2023-05-21T01:22:51;11.53;;;10.43;;
2854;SDS011;1435;49.472;10.940;2023-05-21T01:27:54;12.10;;;10.97;;
2854;SDS011;1435;49.472;10.940;2023-05-21T01:32:59;12.27;;;11.17;;
2854;SDS011;1435;49.472;10.940;2023-05-21T01:38:06;12.60;;;11.30;;
2854;SDS011;1435;49.472;10.940;2023-05-21T01:43:12;11.53;;;10.53;;
2854;SDS011;1435;49.472;10.940;2023-05-21T01:48:15;11.67;;;10.57;;
2854;SDS011;1435;49.472;10.940;2023-05-21T01:53:20;11.87;;;10.70;;
2854;SDS011;1435;49.472;10.940;2023-05-21T01:58:21;11.83;;;10.63;;
2854;SDS011;1435;49.472;10.940;2023-05-21T02:03:24;12.10;;;10.90;;
2854;SDS011;1435;49.472;10.940;2023-05-21T02:08:28;11.50;;;10.40;;
2854;SDS011;1435;49.472;10.940;2023-05-21T02:13:30;11.23;;;10.13;;
2854;SDS011;1435;49.472;10.940;2023-05-21T02:18:32;11.60;;;10.50;;
2854;SDS011;1435;49.472;10.940;2023-05-21T02:23:36;11.70;;;10.63;;
2854;SDS011;1435;49.472;10.940;2023-05-21T02:28:38;11.80;;;10.67;;
2854;SDS011;1435;49.472;10.940;2023-05-21T02:33:40;11.83;;;10.63;;
2854;SDS011;1435;49.472;10.940;2023-05-21T02:38:43;12.63;;;11.53;;
2854;SDS011;1435;49.472;10.940;2023-05-21T02:43:45;13.27;;;11.97;;
2854;SDS011;1435;49.472;10.940;2023-05-21T02:48:47;10.93;;;9.83;;
2854;SDS011;1435;49.472;10.940;2023-05-21T02:53:50;13.27;;;11.03;;
2854;SDS011;1435;49.472;10.940;2023-05-21T02:58:51;12.90;;;11.10;;
2854;SDS011;1435;49.472;10.940;2023-05-21T03:03:53;11.93;;;10.40;;
2854;SDS011;1435;49.472;10.940;2023-05-21T03:08:56;11.57;;;10.50;;
2854;SDS011;1435;49.472;10.940;2023-05-21T03:13:58;12.00;;;10.80;;
2854;SDS011;1435;49.472;10.940;2023-05-21T03:18:59;11.47;;;10.37;;
2854;SDS011;1435;49.472;10.940;2023-05-21T03:24:02;12.33;;;11.10;;
2854;SDS011;1435;49.472;10.940;2023-05-21T03:34:06;12.23;;;11.03;;
2854;SDS011;1435;49.472;10.940;2023-05-21T03:39:09;13.30;;;11.97;;
2854;SDS011;1435;49.472;10.940;2023-05-21T03:44:11;12.77;;;11.57;;
2854;SDS011;1435;49.472;10.940;2023-05-21T03:49:13;15.13;;;12.17;;
2854;SDS011;1435;49.472;10.940;2023-05-21T03:54:17;13.40;;;12.10;;
2854;SDS011;1435;49.472;10.940;2023-05-21T03:59:19;14.63;;;13.20;;
2854;SDS011;1435;49.472;10.940;2023-05-21T04:04:20;12.77;;;11.33;;
2854;SDS011;1435;49.472;10.940;2023-05-21T04:09:23;12.80;;;11.63;;
2854;SDS011;1435;49.472;10.940;2023-05-21T04:14:26;11.60;;;10.63;;
2854;SDS011;1435;49.472;10.940;2023-05-21T04:19:28;13.40;;;12.10;;
2854;SDS011;1435;49.472;10.940;2023-05-21T04:24:31;13.83;;;12.37;;
2854;SDS011;1435;49.472;10.940;2023-05-21T04:29:32;12.93;;;11.70;;
2854;SDS011;1435;49.472;10.940;2023-05-21T04:34:36;14.77;;;13.20;;
2854;SDS011;1435;49.472;10.940;2023-05-21T04:39:40;13.97;;;12.57;;
2854;SDS011;1435;49.472;10.940;2023-05-21T04:44:41;14.40;;;12.80;;
2854;SDS011;1435;49.472;10.940;2023-05-21T04:49:43;16.10;;;13.00;;
2854;SDS011;1435;49.472;10.940;2023-05-21T04:54:47;13.47;;;12.23;;
2854;SDS011;1435;49.472;10.940;2023-05-21T04:59:49;14.50;;;12.93;;
2854;SDS011;1435;49.472;10.940;2023-05-21T05:04:51;16.07;;;14.07;;
2854;SDS011;1435;49.472;10.940;2023-05-21T05:09:54;13.90;;;12.60;;
2854;SDS011;1435;49.472;10.940;2023-05-21T05:14:56;14.93;;;13.43;;
2854;SDS011;1435;49.472;10.940;2023-05-21T05:19:58;14.70;;;13.27;;
2854;SDS011;1435;49.472;10.940;2023-05-21T05:25:01;14.97;;;13.43;;
2854;SDS011;1435;49.472;10.940;2023-05-21T05:30:03;15.63;;;13.30;;
2854;SDS011;1435;49.472;10.940;2023-05-21T05:35:06;13.70;;;12.30;;
2854;SDS011;1435;49.472;10.940;2023-05-21T05:40:10;14.47;;;12.97;;
2854;SDS011;1435;49.472;10.940;2023-05-21T05:45:12;15.03;;;13.40;;
2854;SDS011;1435;49.472;10.940;2023-05-21T05:50:14;17.70;;;13.80;;
2854;SDS011;1435;49.472;10.940;2023-05-21T05:55:17;14.87;;;13.30;;
2854;SDS011;1435;49.472;10.940;2023-05-21T06:00:19;16.70;;;13.97;;
2854;SDS011;1435;49.472;10.940;2023-05-21T06:05:20;14.90;;;13.40;;
2854;SDS011;1435;49.472;10.940;2023-05-21T06:10:23;16.90;;;13.67;;
2854;SDS011;1435;49.472;10.940;2023-05-21T06:15:25;14.57;;;13.00;;
2854;SDS011;1435;49.472;10.940;2023-05-21T06:20:26;13.70;;;12.30;;
2854;SDS011;1435;49.472;10.940;2023-05-21T06:25:30;14.30;;;12.90;;
2854;SDS011;1435;49.472;10.940;2023-05-21T06:30:32;13.63;;;12.23;;
2854;SDS011;1435;49.472;10.940;2023-05-21T06:35:34;13.30;;;12.17;;
2854;SDS011;1435;49.472;10.940;2023-05-21T06:40:39;14.93;;;13.43;;
2854;SDS011;1435;49.472;10.940;2023-05-21T06:45:41;15.47;;;13.87;;
2854;SDS011;1435;49.472;10.940;2023-05-21T06:50:42;14.67;;;13.17;;
2854;SDS011;1435;49.472;10.940;2023-05-21T06:55:46;13.43;;;12.03;;
2854;SDS011;1435;49.472;10.940;2023-05-21T07:00:48;16.40;;;12.60;;
2854;SDS011;1435;49.472;10.940;2023-05-21T07:05:49;15.57;;;13.10;;
2854;SDS011;1435;49.472;10.940;2023-05-21T07:10:52;14.90;;;12.83;;
2854;SDS011;1435;49.472;10.940;2023-05-21T07:15:55;13.30;;;11.90;;
2854;SDS011;1435;49.472;10.940;2023-05-21T07:20:57;15.30;;;13.77;;
2854;SDS011;1435;49.472;10.940;2023-05-21T07:26:00;13.30;;;12.00;;
2854;SDS011;1435;49.472;10.940;2023-05-21T07:31:02;14.57;;;12.30;;
2854;SDS011;1435;49.472;10.940;2023-05-21T07:36:04;15.23;;;12.77;;
2854;SDS011;1435;49.472;10.940;2023-05-21T07:41:07;12.93;;;11.60;;
2854;SDS011;1435;49.472;10.940;2023-05-21T07:46:09;14.83;;;13.43;;
2854;SDS011;1435;49.472;10.940;2023-05-21T07:51:10;14.30;;;12.70;;
2854;SDS011;1435;49.472;10.940;2023-05-21T07:56:14;13.10;;;11.90;;
2854;SDS011;1435;49.472;10.940;2023-05-21T08:01:15;13.07;;;11.40;;
2854;SDS011;1435;49.472;10.940;2023-05-21T08:06:17;13.33;;;12.00;;
2854;SDS011;1435;49.472;10.940;2023-05-21T08:11:20;12.60;;;11.50;;
2854;SDS011;1435;49.472;10.940;2023-05-21T08:16:22;13.00;;;11.23;;
2854;SDS011;1435;49.472;10.940;2023-05-21T08:21:24;10.93;;;9.83;;
2854;SDS011;1435;49.472;10.940;2023-05-21T08:26:27;13.40;;;11.27;;
2854;SDS011;1435;49.472;10.940;2023-05-21T08:31:29;12.10;;;10.90;;
2854;SDS011;1435;49.472;10.940;2023-05-21T08:36:30;12.27;;;11.23;;
2854;SDS011;1435;49.472;10.940;2023-05-21T08:41:34;12.03;;;10.83;;
2854;SDS011;1435;49.472;10.940;2023-05-21T08:46:38;10.73;;;9.63;;
2854;SDS011;1435;49.472;10.940;2023-05-21T08:51:42;10.70;;;9.70;;
2854;SDS011;1435;49.472;10.940;2023-05-21T08:56:46;11.87;;;10.57;;
2854;SDS011;1435;49.472;10.940;2023-05-21T09:01:48;11.47;;;10.43;;
2854;SDS011;1435;49.472;10.940;2023-05-21T09:06:51;10.33;;;9.33;;
2854;SDS011;1435;49.472;10.940;2023-05-21T09:11:58;9.97;;;9.07;;
2854;SDS011;1435;49.472;10.940;2023-05-21T09:16:59;11.77;;;10.60;;
2854;SDS011;1435;49.472;10.940;2023-05-21T09:22:01;11.90;;;10.70;;
2854;SDS011;1435;49.472;10.940;2023-05-21T09:27:06;10.13;;;9.07;;
2854;SDS011;1435;49.472;10.940;2023-05-21T09:32:08;9.67;;;8.87;;
2854;SDS011;1435;49.472;10.940;2023-05-21T09:37:11;10.60;;;9.53;;
2854;SDS011;1435;49.472;10.940;2023-05-21T09:42:15;10.90;;;10.03;;
2854;SDS011;1435;49.472;10.940;2023-05-21T09:47:20;10.27;;;9.27;;
2854;SDS011;1435;49.472;10.940;2023-05-21T09:52:22;12.50;;;10.20;;
2854;SDS011;1435;49.472;10.940;2023-05-21T09:57:26;10.87;;;9.87;;
2854;SDS011;1435;49.472;10.940;2023-05-21T10:02:29;10.13;;;9.23;;
2854;SDS011;1435;49.472;10.940;2023-05-21T10:07:32;10.80;;;9.80;;
2854;SDS011;1435;49.472;10.940;2023-05-21T10:12:37;9.70;;;8.70;;
2854;SDS011;1435;49.472;10.940;2023-05-21T10:17:42;13.43;;;10.47;;
2854;SDS011;1435;49.472;10.940;2023-05-21T10:22:44;10.97;;;9.60;;
2854;SDS011;1435;49.472;10.940;2023-05-21T10:27:49;11.13;;;9.60;;
2854;SDS011;1435;49.472;10.940;2023-05-21T10:32:50;12.70;;;9.17;;
2854;SDS011;1435;49.472;10.940;2023-05-21T10:37:53;10.13;;;9.20;;
2854;SDS011;1435;49.472;10.940;2023-05-21T10:43:12;11.10;;;9.23;;
2854;SDS011;1435;49.472;10.940;2023-05-21T10:48:38;10.90;;;9.40;;
2854;SDS011;1435;49.472;10.940;2023-05-21T10:54:03;11.25;;;10.25;;
2854;SDS011;1435;49.472;10.940;2023-05-21T10:59:33;11.67;;;10.60;;
2854;SDS011;1435;49.472;10.940;2023-05-21T11:04:40;11.10;;;10.10;;
2854;SDS011;1435;49.472;10.940;2023-05-21T11:09:44;12.23;;;9.97;;
2854;SDS011;1435;49.472;10.940;2023-05-21T11:14:55;11.70;;;10.57;;
2854;SDS011;1435;49.472;10.940;2023-05-21T11:19:57;12.57;;;11.10;;
2854;SDS011;1435;49.472;10.940;2023-05-21T11:25:06;12.60;;;11.30;;
2854;SDS011;1435;49.472;10.940;2023-05-21T11:30:13;12.17;;;10.97;;
2854;SDS011;1435;49.472;10.940;2023-05-21T11:35:16;11.40;;;10.40;;
2854;SDS011;1435;49.472;10.940;2023-05-21T11:40:26;11.13;;;10.20;;
2854;SDS011;1435;49.472;10.940;2023-05-21T11:45:31;10.27;;;9.37;;
2854;SDS011;1435;49.472;10.940;2023-05-21T11:50:33;12.03;;;10.80;;
2854;SDS011;1435;49.472;10.940;2023-05-21T11:55:36;10.87;;;9.83;;
2854;SDS011;1435;49.472;10.940;2023-05-21T12:00:40;10.30;;;9.23;;
2854;SDS011;1435;49.472;10.940;2023-05-21T12:05:45;10.53;;;9.33;;
2854;SDS011;1435;49.472;10.940;2023-05-21T12:10:53;9.40;;;8.60;;
2854;SDS011;1435;49.472;10.940;2023-05-21T12:15:57;9.40;;;8.70;;
2854;SDS011;1435;49.472;10.940;2023-05-21T12:20:59;9.10;;;8.30;;
2854;SDS011;1435;49.472;10.940;2023-05-21T12:26:01;8.70;;;8.00;;
2854;SDS011;1435;49.472;10.940;2023-05-21T12:31:05;9.70;;;8.33;;
2854;SDS011;1435;49.472;10.940;2023-05-21T12:36:06;9.13;;;8.33;;
2854;SDS011;1435;49.472;10.940;2023-05-21T12:41:08;8.80;;;7.90;;
2854;SDS011;1435;49.472;10.940;2023-05-21T12:46:12;10.33;;;7.80;;
2854;SDS011;1435;49.472;10.940;2023-05-21T12:51:16;8.97;;;8.10;;
2854;SDS011;1435;49.472;10.940;2023-05-21T12:56:18;7.93;;;7.27;;
2854;SDS011;1435;49.472;10.940;2023-05-21T13:01:22;9.17;;;8.27;;
2854;SDS011;1435;49.472;10.940;2023-05-21T13:06:24;8.10;;;7.23;;
2854;SDS011;1435;49.472;10.940;2023-05-21T13:11:26;7.90;;;7.10;;
2854;SDS011;1435;49.472;10.940;2023-05-21T13:16:29;8.23;;;7.47;;
2854;SDS011;1435;49.472;10.940;2023-05-21T13:21:31;7.37;;;6.77;;
2854;SDS011;1435;49.472;10.940;2023-05-21T13:26:33;7.07;;;6.50;;
2854;SDS011;1435;49.472;10.940;2023-05-21T13:31:36;8.47;;;7.57;;
2854;SDS011;1435;49.472;10.940;2023-05-21T13:36:37;7.77;;;7.07;;
2854;SDS011;1435;49.472;10.940;2023-05-21T13:41:39;8.57;;;7.70;;
2854;SDS011;1435;49.472;10.940;2023-05-21T13:46:44;8.47;;;7.53;;
2854;SDS011;1435;49.472;10.940;2023-05-21T13:51:45;7.90;;;7.20;;
2854;SDS011;1435;49.472;10.940;2023-05-21T13:56:47;7.23;;;6.53;;
2854;SDS011;1435;49.472;10.940;2023-05-21T14:01:50;8.17;;;7.57;;
2854;SDS011;1435;49.472;10.940;2023-05-21T14:06:52;7.33;;;6.73;;
2854;SDS011;1435;49.472;10.940;2023-05-21T14:11:54;8.20;;;7.40;;
2854;SDS011;1435;49.472;10.940;2023-05-21T14:16:57;6.70;;;6.10;;
2854;SDS011;1435;49.472;10.940;2023-05-21T14:21:59;10.10;;;6.17;;
2854;SDS011;1435;49.472;10.940;2023-05-21T14:27:00;6.60;;;6.00;;
2854;SDS011;1435;49.472;10.940;2023-05-21T14:32:04;7.30;;;6.60;;
2854;SDS011;1435;49.472;10.940;2023-05-21T14:37:06;6.87;;;6.30;;
2854;SDS011;1435;49.472;10.940;2023-05-21T14:42:08;7.43;;;6.83;;
2854;SDS011;1435;49.472;10.940;2023-05-21T14:47:11;7.33;;;6.73;;
2854;SDS011;1435;49.472;10.940;2023-05-21T14:52:12;6.87;;;6.23;;
2854;SDS011;1435;49.472;10.940;2023-05-21T14:57:14;10.10;;;6.23;;
2854;SDS011;1435;49.472;10.940;2023-05-21T15:02:17;8.70;;;6.73;;
2854;SDS011;1435;49.472;10.940;2023-05-21T15:07:19;7.37;;;6.67;;
2854;SDS011;1435;49.472;10.940;2023-05-21T15:12:20;6.57;;;6.00;;
2854;SDS011;1435;49.472;10.940;2023-05-21T15:17:23;6.80;;;6.30;;
2854;SDS011;1435;49.472;10.940;2023-05-21T15:22:25;7.93;;;6.30;;
2854;SDS011;1435;49.472;10.940;2023-05-21T15:27:28;6.73;;;5.80;;
2854;SDS011;1435;49.472;10.940;2023-05-21T15:32:31;6.13;;;5.57;;
2854;SDS011;1435;49.472;10.940;2023-05-21T15:37:33;6.80;;;6.10;;
2854;SDS011;1435;49.472;10.940;2023-05-21T15:42:34;6.33;;;5.73;;
2854;SDS011;1435;49.472;10.940;2023-05-21T15:47:38;6.43;;;5.83;;
2854;SDS011;1435;49.472;10.940;2023-05-21T15:52:40;7.77;;;7.03;;
2854;SDS011;1435;49.472;10.940;2023-05-21T15:57:42;6.97;;;5.93;;
2854;SDS011;1435;49.472;10.940;2023-05-21T16:02:45;6.70;;;6.10;;
2854;SDS011;1435;49.472;10.940;2023-05-21T16:07:47;8.93;;;7.37;;
2854;SDS011;1435;49.472;10.940;2023-05-21T16:12:49;7.63;;;6.43;;
2854;SDS011;1435;49.472;10.940;2023-05-21T16:17:52;7.70;;;7.10;;
2854;SDS011;1435;49.472;10.940;2023-05-21T16:22:53;7.77;;;7.07;;
2854;SDS011;1435;49.472;10.940;2023-05-21T16:27:55;7.50;;;6.80;;
2854;SDS011;1435;49.472;10.940;2023-05-21T16:32:58;7.37;;;6.67;;
2854;SDS011;1435;49.472;10.940;2023-05-21T16:38:00;6.87;;;6.17;;
2854;SDS011;1435;49.472;10.940;2023-05-21T16:43:02;11.43;;;7.17;;
2854;SDS011;1435;49.472;10.940;2023-05-21T16:48:05;8.10;;;7.40;;
2854;SDS011;1435;49.472;10.940;2023-05-21T16:53:07;8.37;;;7.67;;
2854;SDS011;1435;49.472;10.940;2023-05-21T16:58:10;7.20;;;6.50;;
2854;SDS011;1435;49.472;10.940;2023-05-21T17:03:14;7.50;;;6.80;;
2854;SDS011;1435;49.472;10.940;2023-05-21T17:08:15;6.83;;;6.23;;
2854;SDS011;1435;49.472;10.940;2023-05-21T17:13:17;11.60;;;7.30;;
2854;SDS011;1435;49.472;10.940;2023-05-21T17:18:20;6.33;;;5.83;;
2854;SDS011;1435;49.472;10.940;2023-05-21T17:23:22;6.50;;;6.07;;
2854;SDS011;1435;49.472;10.940;2023-05-21T17:28:23;6.70;;;6.07;;
2854;SDS011;1435;49.472;10.940;2023-05-21T17:33:26;6.53;;;5.73;;
2854;SDS011;1435;49.472;10.940;2023-05-21T17:38:28;6.80;;;6.13;;
2854;SDS011;1435;49.472;10.940;2023-05-21T17:43:30;8.10;;;6.50;;
2854;SDS011;1435;49.472;10.940;2023-05-21T17:48:33;12.90;;;7.73;;
2854;SDS011;1435;49.472;10.940;2023-05-21T17:53:35;8.47;;;6.80;;
2854;SDS011;1435;49.472;10.940;2023-05-21T17:58:36;6.70;;;6.10;;
2854;SDS011;1435;49.472;10.940;2023-05-21T18:03:39;9.47;;;8.67;;
2854;SDS011;1435;49.472;10.940;2023-05-21T18:08:41;7.80;;;6.90;;
2854;SDS011;1435;49.472;10.940;2023-05-21T18:13:43;7.90;;;6.27;;
2854;SDS011;1435;49.472;10.940;2023-05-21T18:18:46;7.83;;;7.03;;
2854;SDS011;1435;49.472;10.940;2023-05-21T18:23:47;8.47;;;7.77;;
2854;SDS011;1435;49.472;10.940;2023-05-21T18:28:49;7.53;;;6.87;;
2854;SDS011;1435;49.472;10.940;2023-05-21T18:33:52;7.47;;;6.77;;
2854;SDS011;1435;49.472;10.940;2023-05-21T18:38:54;8.87;;;7.97;;
2854;SDS011;1435;49.472;10.940;2023-05-21T18:43:56;9.10;;;7.20;;
2854;SDS011;1435;49.472;10.940;2023-05-21T18:48:59;7.50;;;6.70;;
2854;SDS011;1435;49.472;10.940;2023-05-21T18:54:01;12.60;;;7.90;;
2854;SDS011;1435;49.472;10.940;2023-05-21T18:59:02;8.63;;;7.83;;
2854;SDS011;1435;49.472;10.940;2023-05-21T19:04:06;7.73;;;7.03;;
2854;SDS011;1435;49.472;10.940;2023-05-21T19:09:07;7.97;;;7.27;;
2854;SDS011;1435;49.472;10.940;2023-05-21T19:14:09;10.53;;;8.10;;
2854;SDS011;1435;49.472;10.940;2023-05-21T19:19:12;9.17;;;8.37;;
2854;SDS011;1435;49.472;10.940;2023-05-21T19:24:14;8.00;;;7.30;;
2854;SDS011;1435;49.472;10.940;2023-05-21T19:29:15;8.43;;;7.63;;
2854;SDS011;1435;49.472;10.940;2023-05-21T19:34:18;8.77;;;8.03;;
2854;SDS011;1435;49.472;10.940;2023-05-21T19:39:20;8.97;;;8.23;;
2854;SDS011;1435;49.472;10.940;2023-05-21T19:44:22;8.90;;;8.17;;
2854;SDS011;1435;49.472;10.940;2023-05-21T19:49:25;9.50;;;8.60;;
2854;SDS011;1435;49.472;10.940;2023-05-21T19:54:27;10.13;;;8.30;;
2854;SDS011;1435;49.472;10.940;2023-05-21T19:59:29;9.60;;;8.07;;
2854;SDS011;1435;49.472;10.940;2023-05-21T20:04:32;9.30;;;8.40;;
2854;SDS011;1435;49.472;10.940;2023-05-21T20:09:33;12.87;;;9.27;;
2854;SDS011;1435;49.472;10.940;2023-05-21T20:14:36;8.83;;;8.03;;
2854;SDS011;1435;49.472;10.940;2023-05-21T20:19:39;9.80;;;8.90;;
2854;SDS011;1435;49.472;10.940;2023-05-21T20:24:40;9.70;;;8.70;;
2854;SDS011;1435;49.472;10.940;2023-05-21T20:29:43;11.50;;;9.57;;
2854;SDS011;1435;49.472;10.940;2023-05-21T20:34:46;10.17;;;9.20;;
2854;SDS011;1435;49.472;10.940;2023-05-21T20:39:48;9.63;;;8.80;;
2854;SDS011;1435;49.472;10.940;2023-05-21T20:44:52;10.10;;;9.10;;
2854;SDS011;1435;49.472;10.940;2023-05-21T20:49:56;9.83;;;8.93;;
2854;SDS011;1435;49.472;10.940;2023-05-21T20:54:58;10.33;;;9.33;;
2854;SDS011;1435;49.472;10.940;2023-05-21T21:00:03;10.13;;;8.80;;
2854;SDS011;1435;49.472;10.940;2023-05-21T21:05:10;9.97;;;8.67;;
2854;SDS011;1435;49.472;10.940;2023-05-21T21:15:13;10.37;;;9.30;;
2854;SDS011;1435;49.472;10.940;2023-05-21T21:20:16;10.40;;;9.40;;
2854;SDS011;1435;49.472;10.940;2023-05-21T21:25:18;11.80;;;10.63;;
2854;SDS011;1435;49.472;10.940;2023-05-21T21:30:20;11.20;;;10.17;;
2854;SDS011;1435;49.472;10.940;2023-05-21T21:35:23;10.30;;;9.40;;
2854;SDS011;1435;49.472;10.940;2023-05-21T21:40:25;10.33;;;9.33;;
2854;SDS011;1435;49.472;10.940;2023-05-21T21:45:26;12.10;;;10.80;;
2854;SDS011;1435;49.472;10.940;2023-05-21T21:50:29;11.93;;;10.60;;
2854;SDS011;1435;49.472;10.940;2023-05-21T21:55:31;12.07;;;10.87;;
2854;SDS011;1435;49.472;10.940;2023-05-21T22:00:33;10.70;;;9.60;;
2854;SDS011;1435;49.472;10.940;2023-05-21T22:05:37;10.90;;;9.87;;
2854;SDS011;1435;49.472;10.940;2023-05-21T22:10:38;12.03;;;9.73;;
2854;SDS011;1435;49.472;10.940;2023-05-21T22:15:40;12.30;;;10.93;;
2854;SDS011;1435;49.472;10.940;2023-05-21T22:20:43;11.87;;;10.70;;
2854;SDS011;1435;49.472;10.940;2023-05-21T22:25:46;12.37;;;11.23;;
2854;SDS011;1435;49.472;10.940;2023-05-21T22:30:47;12.70;;;11.50;;
2854;SDS011;1435;49.472;10.940;2023-05-21T22:35:50;13.50;;;12.20;;
2854;SDS011;1435;49.472;10.940;2023-05-21T22:40:53;13.50;;;12.10;;
2854;SDS011;1435;49.472;10.940;2023-05-21T22:45:55;11.47;;;10.43;;
2854;SDS011;1435;49.472;10.940;2023-05-21T22:50:58;12.53;;;11.00;;
2854;SDS011;1435;49.472;10.940;2023-05-21T22:56:01;13.03;;;11.70;;
2854;SDS011;1435;49.472;10.940;2023-05-21T23:01:02;12.57;;;11.10;;
2854;SDS011;1435;49.472;10.940;2023-05-21T23:06:06;12.77;;;11.60;;
2854;SDS011;1435;49.472;10.940;2023-05-21T23:11:07;12.90;;;11.60;;
2854;SDS011;1435;49.472;10.940;2023-05-21T23:16:09;13.03;;;11.33;;
2854;SDS011;1435;49.472;10.940;2023-05-21T23:21:12;13.47;;;12.17;;
2854;SDS011;1435;49.472;10.940;2023-05-21T23:26:14;15.63;;;12.80;;
2854;SDS011;1435;49.472;10.940;2023-05-21T23:31:16;13.33;;;11.90;;
2854;SDS011;1435;49.472;10.940;2023-05-21T23:36:19;12.17;;;10.97;;
2854;SDS011;1435;49.472;10.940;2023-05-21T23:41:21;13.23;;;11.83;;
2854;SDS011;1435;49.472;10.940;2023-05-21T23:46:23;12.57;;;11.27;;
2854;SDS011;1435;49.472;10.940;2023-05-21T23:51:26;13.13;;;11.83;;
2854;SDS011;1435;49.472;10.940;2023-05-21T23:56:28;14.43;;;13.03;;
